createdAt,value
2023-05-16T00:02:11.209Z,96103.34
2023-05-16T00:04:39.164Z,96150.38
2023-05-16T00:07:07.094Z,96146.09
2023-05-16T00:09:34.847Z,96156.00
2023-05-16T00:12:02.638Z,96131.44
2023-05-16T00:14:31.839Z,96135.50
2023-05-16T00:16:59.696Z,96141.41
2023-05-16T00:19:28.056Z,96137.44
2023-05-16T00:21:56.080Z,96132.34
2023-05-16T00:24:23.871Z,96125.84
2023-05-16T00:26:51.566Z,96142.94
2023-05-16T00:29:19.649Z,96131.44
2023-05-16T00:31:48.795Z,96119.09
2023-05-16T00:34:16.683Z,96127.72
2023-05-16T00:36:45.421Z,96129.56
2023-05-16T00:39:13.308Z,96121.06
2023-05-16T00:41:41.183Z,96123.81
2023-05-16T00:44:08.978Z,96123.19
2023-05-16T00:46:37.707Z,96126.75
2023-05-16T00:49:07.010Z,96126.34
2023-05-16T00:51:35.331Z,96128.13
2023-05-16T00:54:04.219Z,96126.09
2023-05-16T00:56:32.082Z,96117.19
2023-05-16T00:59:00.226Z,96112.13
2023-05-16T01:01:29.617Z,96109.19
2023-05-16T01:03:57.925Z,96113.00
2023-05-16T01:06:27.622Z,96118.34
2023-05-16T01:08:55.416Z,96102.97
2023-05-16T01:11:28.297Z,96101.19
2023-05-16T01:14:08.300Z,96106.22
2023-05-16T01:16:41.842Z,96111.75
2023-05-16T01:19:22.340Z,96111.88
2023-05-16T01:22:05.554Z,96107.56
2023-05-16T01:24:41.525Z,96114.22
2023-05-16T01:27:13.005Z,96096.09
2023-05-16T01:29:40.812Z,96111.66
2023-05-16T01:32:09.467Z,96114.25
2023-05-16T01:34:37.287Z,96114.25
2023-05-16T01:37:14.809Z,96114.00
2023-05-16T01:39:49.547Z,96119.19
2023-05-16T01:42:20.389Z,96115.03
2023-05-16T01:44:55.413Z,96114.53
2023-05-16T01:47:27.674Z,96110.31
2023-05-16T01:50:01.348Z,96112.13
2023-05-16T01:52:33.248Z,96112.28
2023-05-16T01:55:02.036Z,96101.94
2023-05-16T01:57:31.784Z,96118.63
2023-05-16T01:59:59.852Z,96108.09
2023-05-16T02:02:27.573Z,96108.16
2023-05-16T02:04:55.403Z,96094.63
2023-05-16T02:07:23.652Z,96102.13
2023-05-16T02:09:51.572Z,96105.47
2023-05-16T02:12:19.309Z,96100.69
2023-05-16T02:14:48.373Z,96108.72
2023-05-16T02:17:16.167Z,96096.25
2023-05-16T02:19:44.008Z,96099.47
2023-05-16T02:22:12.559Z,96093.88
2023-05-16T02:24:40.526Z,96105.88
2023-05-16T02:27:08.340Z,96101.03
2023-05-16T02:29:36.248Z,96100.97
2023-05-16T02:32:05.870Z,96096.41
2023-05-16T02:34:33.613Z,96080.19
2023-05-16T02:37:01.725Z,96098.91
2023-05-16T02:39:30.059Z,96106.94
2023-05-16T02:41:57.831Z,96095.69
2023-05-16T02:44:25.692Z,96095.59
2023-05-16T02:46:53.423Z,96089.91
2023-05-16T02:49:22.556Z,96094.16
2023-05-16T02:51:50.472Z,96085.13
2023-05-16T02:54:18.340Z,96089.59
2023-05-16T02:56:46.217Z,96090.72
2023-05-16T02:59:14.001Z,96085.88
2023-05-16T03:01:41.719Z,96087.50
2023-05-16T03:04:09.630Z,96079.78
2023-05-16T03:06:38.856Z,96081.16
2023-05-16T03:09:07.848Z,96083.25
2023-05-16T03:11:36.885Z,96085.78
2023-05-16T03:14:05.781Z,96075.50
2023-05-16T03:16:33.674Z,96082.84
2023-05-16T03:19:01.552Z,96083.41
2023-05-16T03:21:29.407Z,96079.13
2023-05-16T03:23:58.679Z,96081.78
2023-05-16T03:26:26.556Z,96068.47
2023-05-16T03:28:54.546Z,96075.75
2023-05-16T03:31:22.751Z,96069.25
2023-05-16T03:33:50.585Z,96072.56
2023-05-16T03:36:18.407Z,96064.59
2023-05-16T03:38:46.292Z,96065.09
2023-05-16T03:41:15.466Z,96071.97
2023-05-16T03:43:43.176Z,96078.56
2023-05-16T03:46:10.995Z,96079.78
2023-05-16T03:48:38.784Z,96075.75
2023-05-16T03:51:06.987Z,96083.41
2023-05-16T03:53:34.739Z,96079.88
2023-05-16T03:56:02.529Z,96078.81
2023-05-16T03:58:31.682Z,96078.06
2023-05-16T04:00:59.832Z,96078.56
2023-05-16T04:03:28.737Z,96081.47
2023-05-16T04:05:57.213Z,96074.00
2023-05-16T04:08:25.668Z,96087.97
2023-05-16T04:10:53.413Z,96087.78
2023-05-16T04:13:21.267Z,96089.59
2023-05-16T04:15:50.525Z,96089.59
2023-05-16T04:18:19.489Z,96097.53
2023-05-16T04:20:47.586Z,96087.78
2023-05-16T04:23:15.392Z,96095.31
2023-05-16T04:25:43.269Z,96084.69
2023-05-16T04:28:11.097Z,96094.41
2023-05-16T04:30:38.863Z,96086.81
2023-05-16T04:33:08.441Z,96092.72
2023-05-16T04:35:37.698Z,96101.56
2023-05-16T04:38:05.639Z,96090.84
2023-05-16T04:40:33.862Z,96089.06
2023-05-16T04:43:01.635Z,96090.53
2023-05-16T04:45:29.569Z,96089.13
2023-05-16T04:47:57.725Z,96081.47
2023-05-16T04:50:26.892Z,96085.16
2023-05-16T04:52:56.407Z,96085.38
2023-05-16T04:55:24.438Z,96081.88
2023-05-16T04:57:52.207Z,96086.47
2023-05-16T05:00:20.621Z,96084.22
2023-05-16T05:02:48.394Z,96082.56
2023-05-16T05:05:16.209Z,96085.88
2023-05-16T05:07:45.476Z,96089.41
2023-05-16T05:10:13.360Z,96089.09
2023-05-16T05:12:41.031Z,96085.97
2023-05-16T05:15:09.296Z,96088.09
2023-05-16T05:17:37.828Z,96084.16
2023-05-16T05:20:08.668Z,96085.31
2023-05-16T05:22:36.426Z,96087.75
2023-05-16T05:25:06.497Z,96094.72
2023-05-16T05:27:34.468Z,96098.34
2023-05-16T05:30:02.227Z,96098.19
2023-05-16T05:32:30.036Z,96096.25
2023-05-16T05:34:57.848Z,96096.25
2023-05-16T05:37:25.668Z,96096.31
2023-05-16T05:39:53.459Z,96091.56
2023-05-16T05:42:22.752Z,96098.34
2023-05-16T05:44:50.613Z,96094.34
2023-05-16T05:47:18.491Z,96096.69
2023-05-16T05:49:46.277Z,96095.78
2023-05-16T05:52:14.429Z,96088.63
2023-05-16T05:54:42.263Z,96094.31
2023-05-16T05:57:10.067Z,96089.06
2023-05-16T05:59:39.189Z,96095.38
2023-05-16T06:02:07.450Z,96100.50
2023-05-16T06:04:35.384Z,96095.97
2023-05-16T06:07:03.180Z,96096.19
2023-05-16T06:09:31.032Z,96093.53
2023-05-16T06:11:58.860Z,96077.47
2023-05-16T06:14:26.933Z,96101.34
2023-05-16T06:16:56.403Z,96107.94
2023-05-16T06:19:24.998Z,96111.34
2023-05-16T06:21:52.968Z,96107.34
2023-05-16T06:24:20.704Z,96109.91
2023-05-16T06:26:51.599Z,96115.38
2023-05-16T06:29:19.520Z,96112.53
2023-05-16T06:31:48.096Z,96108.47
2023-05-16T06:34:17.217Z,96113.34
2023-05-16T06:36:45.373Z,96108.78
2023-05-16T06:39:13.198Z,96093.03
2023-05-16T06:41:40.985Z,96109.59
2023-05-16T06:44:09.119Z,96110.25
2023-05-16T06:46:37.259Z,96111.41
2023-05-16T06:49:06.913Z,96108.22
2023-05-16T06:51:36.093Z,96098.84
2023-05-16T06:54:04.226Z,96107.22
2023-05-16T06:56:32.522Z,96099.78
2023-05-16T06:59:01.787Z,96105.56
2023-05-16T07:01:29.634Z,96111.16
2023-05-16T07:03:57.523Z,96122.16
2023-05-16T07:06:25.489Z,96112.69
2023-05-16T07:08:54.641Z,96115.47
2023-05-16T07:11:22.500Z,96091.38
2023-05-16T07:13:50.226Z,96115.03
2023-05-16T07:16:18.390Z,96111.22
2023-05-16T07:18:46.351Z,96108.22
2023-05-16T07:21:14.212Z,96109.66
2023-05-16T07:23:42.147Z,96115.19
2023-05-16T07:26:11.303Z,96117.75
2023-05-16T07:28:39.149Z,96113.25
2023-05-16T07:31:08.332Z,96108.38
2023-05-16T07:33:36.402Z,96114.88
2023-05-16T07:36:16.091Z,96117.19
2023-05-16T07:38:45.182Z,96119.13
2023-05-16T07:41:14.522Z,96129.44
2023-05-16T07:43:42.361Z,96128.25
2023-05-16T07:46:10.257Z,96118.44
2023-05-16T07:48:38.173Z,96108.00
2023-05-16T07:51:05.968Z,96119.13
2023-05-16T07:53:33.750Z,96109.66
2023-05-16T07:56:01.538Z,96121.53
2023-05-16T07:58:30.947Z,96119.59
2023-05-16T08:00:58.969Z,96093.34
2023-05-16T08:03:27.169Z,96112.84
2023-05-16T08:05:55.100Z,96120.88
2023-05-16T08:08:22.896Z,96127.97
2023-05-16T08:10:50.921Z,96124.44
2023-05-16T08:13:18.745Z,96125.06
2023-05-16T08:15:47.933Z,96133.34
2023-05-16T08:18:17.172Z,96121.47
2023-05-16T08:20:45.748Z,96120.13
2023-05-16T08:23:13.864Z,96119.38
2023-05-16T08:25:41.915Z,96119.06
2023-05-16T08:28:09.787Z,96118.13
2023-05-16T08:30:37.955Z,96111.31
2023-05-16T08:33:09.287Z,96122.25
2023-05-16T08:35:37.135Z,96118.25
2023-05-16T08:38:05.018Z,96125.25
2023-05-16T08:40:33.316Z,96125.47
2023-05-16T08:43:01.282Z,96123.66
2023-05-16T08:45:31.399Z,96117.69
2023-05-16T08:48:03.724Z,96128.88
2023-05-16T08:50:33.763Z,96129.31
2023-05-16T08:53:07.804Z,96098.88
2023-05-16T08:55:36.317Z,96127.31
2023-05-16T08:58:05.322Z,96127.31
2023-05-16T09:00:33.123Z,96121.94
2023-05-16T09:03:02.127Z,96118.28
2023-05-16T09:05:32.611Z,96114.84
2023-05-16T09:08:00.573Z,96111.81
2023-05-16T09:10:28.338Z,96106.34
2023-05-16T09:12:56.281Z,96104.47
2023-05-16T09:15:24.073Z,96103.41
2023-05-16T09:17:52.664Z,96102.38
2023-05-16T09:20:21.682Z,96091.72
2023-05-16T09:22:56.538Z,96097.59
2023-05-16T09:25:31.119Z,96101.50
2023-05-16T09:28:01.905Z,96098.97
2023-05-16T09:30:31.716Z,96089.84
2023-05-16T09:33:00.253Z,96100.28
2023-05-16T09:38:00.433Z,96108.59
2023-05-16T09:40:28.174Z,96113.19
2023-05-16T09:43:05.472Z,96114.06
2023-05-16T09:45:34.222Z,96119.56
2023-05-16T09:48:06.861Z,96120.16
2023-05-16T09:50:35.802Z,96132.22
2023-05-16T09:53:05.460Z,96138.34
2023-05-16T09:55:33.790Z,96129.84
2023-05-16T09:58:01.957Z,96133.25
2023-05-16T10:00:34.450Z,96141.28
2023-05-16T10:03:05.632Z,96137.13
2023-05-16T10:05:34.738Z,96133.44
2023-05-16T10:08:06.426Z,96116.72
2023-05-16T10:10:38.334Z,96129.06
2023-05-16T10:13:08.708Z,96126.50
2023-05-16T10:15:38.884Z,96144.00
2023-05-16T10:18:12.302Z,96144.09
2023-05-16T10:20:43.444Z,96146.00
2023-05-16T10:23:17.959Z,96148.03
2023-05-16T10:25:47.373Z,96132.41
2023-05-16T10:28:16.339Z,96122.50
2023-05-16T10:30:45.517Z,96120.44
2023-05-16T10:33:15.104Z,96121.81
2023-05-16T10:35:43.453Z,96138.13
2023-05-16T10:38:15.150Z,96147.84
2023-05-16T10:40:43.829Z,96162.75
2023-05-16T10:43:11.701Z,96174.22
2023-05-16T10:45:42.103Z,96139.03
2023-05-16T10:48:13.813Z,96153.78
2023-05-16T10:50:44.994Z,96150.97
2023-05-16T10:53:32.385Z,96143.91
2023-05-16T10:56:09.331Z,96148.75
2023-05-16T10:58:45.037Z,96141.78
2023-05-16T11:01:17.416Z,96149.44
2023-05-16T11:04:12.510Z,96132.88
2023-05-16T11:06:51.180Z,96145.34
2023-05-16T11:09:23.434Z,96141.78
2023-05-16T11:12:00.616Z,96145.75
2023-05-16T11:14:32.166Z,96148.28
2023-05-16T11:17:04.996Z,96134.38
2023-05-16T11:19:35.440Z,96144.22
2023-05-16T11:22:16.998Z,96153.41
2023-05-16T11:24:57.366Z,96166.72
2023-05-16T11:27:27.945Z,96180.38
2023-05-16T11:29:57.709Z,96186.63
2023-05-16T11:32:26.514Z,96173.72
2023-05-16T11:34:54.881Z,96173.09
2023-05-16T11:37:22.917Z,96164.59
2023-05-16T11:39:52.403Z,96174.84
2023-05-16T11:42:20.350Z,96170.88
2023-05-16T11:44:48.143Z,96154.03
2023-05-16T11:47:16.067Z,96159.22
2023-05-16T11:49:43.938Z,96170.19
2023-05-16T11:52:11.841Z,96180.81
2023-05-16T11:54:41.593Z,96149.28
2023-05-16T11:57:11.276Z,96180.69
2023-05-16T11:59:39.630Z,96183.34
2023-05-16T12:02:09.695Z,96174.22
2023-05-16T12:04:38.796Z,96186.53
2023-05-16T12:07:07.067Z,96185.94
2023-05-16T12:09:34.876Z,96194.59
2023-05-16T12:12:06.933Z,96193.03
2023-05-16T12:14:36.121Z,96198.19
2023-05-16T12:17:05.567Z,96190.84
2023-05-16T12:19:33.643Z,96199.03
2023-05-16T12:22:01.495Z,96204.75
2023-05-16T12:24:33.069Z,96209.06
2023-05-16T12:27:00.969Z,96193.66
2023-05-16T12:29:28.830Z,96202.91
2023-05-16T12:31:58.068Z,96208.38
2023-05-16T12:34:30.815Z,96201.09
2023-05-16T12:37:02.013Z,96216.47
2023-05-16T12:39:38.935Z,96210.50
2023-05-16T12:42:09.592Z,96208.97
2023-05-16T12:44:37.377Z,96213.13
2023-05-16T12:47:13.537Z,96199.47
2023-05-16T12:49:46.776Z,96213.25
2023-05-16T12:52:20.604Z,96207.28
2023-05-16T12:54:49.509Z,96213.50
2023-05-16T12:57:17.314Z,96179.06
2023-05-16T12:59:45.117Z,96217.00
2023-05-16T13:02:14.236Z,96211.25
2023-05-16T13:04:42.006Z,96207.88
2023-05-16T13:07:09.756Z,96202.75
2023-05-16T13:09:37.861Z,96214.41
2023-05-16T13:12:06.145Z,96193.72
2023-05-16T13:14:33.973Z,96208.81
2023-05-16T13:17:01.902Z,96201.53
2023-05-16T13:19:31.715Z,96196.09
2023-05-16T13:21:59.757Z,96209.75
2023-05-16T13:24:27.672Z,96212.63
2023-05-16T13:26:55.639Z,96213.13
2023-05-16T13:29:23.385Z,96219.84
2023-05-16T13:31:51.359Z,96226.72
2023-05-16T13:34:19.136Z,96229.34
2023-05-16T13:36:54.506Z,96216.63
2023-05-16T13:39:23.272Z,96220.09
2023-05-16T13:41:51.509Z,96220.09
2023-05-16T13:44:19.372Z,96228.16
2023-05-16T13:46:47.166Z,96204.59
2023-05-16T13:49:15.109Z,96225.63
2023-05-16T13:51:42.891Z,96222.03
2023-05-16T13:54:12.018Z,96221.34
2023-05-16T13:56:39.904Z,96243.25
2023-05-16T13:59:09.091Z,96216.78
2023-05-16T14:01:38.141Z,96241.22
2023-05-16T14:04:06.568Z,96243.28
2023-05-16T14:06:34.523Z,96223.59
2023-05-16T14:09:03.371Z,96246.16
2023-05-16T14:11:32.439Z,96246.69
2023-05-16T14:14:00.342Z,96246.75
2023-05-16T14:16:29.403Z,96252.63
2023-05-16T14:18:57.310Z,96243.19
2023-05-16T14:21:25.109Z,96246.75
2023-05-16T14:23:52.894Z,96247.25
2023-05-16T14:26:22.737Z,96245.44
2023-05-16T14:28:52.072Z,96244.13
2023-05-16T14:31:20.029Z,96250.16
2023-05-16T14:33:47.845Z,96233.81
2023-05-16T14:36:16.158Z,96249.50
2023-05-16T14:38:44.144Z,96244.34
2023-05-16T14:41:12.204Z,96247.69
2023-05-16T14:43:40.015Z,96260.81
2023-05-16T14:46:09.355Z,96256.69
2023-05-16T14:48:37.301Z,96251.53
2023-05-16T14:51:05.250Z,96257.63
2023-05-16T14:53:33.163Z,96258.13
2023-05-16T14:56:02.735Z,96262.19
2023-05-16T14:58:31.075Z,96235.09
2023-05-16T15:00:58.862Z,96259.81
2023-05-16T15:03:28.049Z,96256.75
2023-05-16T15:05:55.860Z,96263.56
2023-05-16T15:08:23.995Z,96270.44
2023-05-16T15:10:52.081Z,96259.28
2023-05-16T15:13:20.231Z,96263.09
2023-05-16T15:15:48.368Z,96270.94
2023-05-16T15:18:16.217Z,96268.53
2023-05-16T15:20:45.371Z,96270.06
2023-05-16T15:23:13.170Z,96272.75
2023-05-16T15:25:40.881Z,96269.91
2023-05-16T15:28:08.651Z,96266.75
2023-05-16T15:30:36.486Z,96267.47
2023-05-16T15:33:04.686Z,96270.94
2023-05-16T15:35:32.894Z,96260.72
2023-05-16T15:38:02.056Z,96268.84
2023-05-16T15:40:32.049Z,96267.69
2023-05-16T15:42:59.833Z,96270.00
2023-05-16T15:45:27.777Z,96268.69
2023-05-16T15:47:55.742Z,96268.19
2023-05-16T15:50:23.807Z,96274.69
2023-05-16T15:52:51.610Z,96270.84
2023-05-16T15:55:20.777Z,96284.91
2023-05-16T15:57:48.572Z,96287.00
2023-05-16T16:00:17.501Z,96277.72
2023-05-16T16:02:46.257Z,96289.56
2023-05-16T16:05:14.244Z,96286.91
2023-05-16T16:07:42.389Z,96286.16
2023-05-16T16:10:11.333Z,96297.59
2023-05-16T16:12:40.615Z,96291.59
2023-05-16T16:15:10.946Z,96302.53
2023-05-16T16:17:38.893Z,96305.56
2023-05-16T16:20:07.717Z,96311.75
2023-05-16T16:22:35.517Z,96300.38
2023-05-16T16:25:03.379Z,96300.06
2023-05-16T16:27:31.163Z,96302.31
2023-05-16T16:30:00.929Z,96306.06
2023-05-16T16:32:28.708Z,96312.84
2023-05-16T16:34:56.626Z,96303.44
2023-05-16T16:37:24.375Z,96306.22
2023-05-16T16:39:52.174Z,96311.47
2023-05-16T16:42:20.071Z,96312.53
2023-05-16T16:44:47.934Z,96317.75
2023-05-16T16:47:17.075Z,96315.94
2023-05-16T16:49:45.509Z,96327.97
2023-05-16T16:52:13.427Z,96332.44
2023-05-16T16:54:41.495Z,96316.44
2023-05-16T16:57:09.259Z,96328.63
2023-05-16T16:59:37.081Z,96335.09
2023-05-16T17:02:04.999Z,96331.63
2023-05-16T17:04:35.549Z,96334.94
2023-05-16T17:07:03.370Z,96338.69
2023-05-16T17:09:31.381Z,96339.50
2023-05-16T17:12:04.536Z,96349.84
2023-05-16T17:14:32.423Z,96349.22
2023-05-16T17:17:00.243Z,96347.13
2023-05-16T17:19:28.247Z,96360.66
2023-05-16T17:21:57.589Z,96354.44
2023-05-16T17:24:25.369Z,96364.88
2023-05-16T17:26:53.268Z,96356.50
2023-05-16T17:29:21.164Z,96365.13
2023-05-16T17:31:48.912Z,96372.66
2023-05-16T17:34:16.939Z,96373.16
2023-05-16T17:36:45.465Z,96374.88
2023-05-16T17:39:15.097Z,96384.28
2023-05-16T17:41:43.218Z,96380.59
2023-05-16T17:44:10.961Z,96386.91
2023-05-16T17:46:39.434Z,96388.19
2023-05-16T17:49:08.441Z,96388.69
2023-05-16T17:51:49.765Z,96379.50
2023-05-16T17:54:19.721Z,96378.78
2023-05-16T17:56:47.768Z,96390.84
2023-05-16T17:59:16.275Z,96385.00
2023-05-16T18:01:44.481Z,96407.13
2023-05-16T18:04:13.270Z,96403.47
2023-05-16T18:06:41.614Z,96414.88
2023-05-16T18:09:10.258Z,96415.78
2023-05-16T18:11:40.565Z,96422.91
2023-05-16T18:14:09.556Z,96419.78
2023-05-16T18:16:37.425Z,96420.72
2023-05-16T18:19:08.659Z,96412.88
2023-05-16T18:21:38.253Z,96419.31
2023-05-16T18:24:08.344Z,96424.63
2023-05-16T18:26:36.416Z,96411.75
2023-05-16T18:29:06.013Z,96424.97
2023-05-16T18:31:34.102Z,96435.47
2023-05-16T18:34:02.856Z,96429.22
2023-05-16T18:36:30.793Z,96443.84
2023-05-16T18:38:58.584Z,96444.31
2023-05-16T18:41:27.024Z,96455.63
2023-05-16T18:43:55.093Z,96451.44
2023-05-16T18:46:24.305Z,96455.78
2023-05-16T18:48:52.587Z,96458.47
2023-05-16T18:51:20.878Z,96457.50
2023-05-16T18:53:48.656Z,96475.22
2023-05-16T18:56:16.432Z,96475.31
2023-05-16T18:58:44.291Z,96473.81
2023-05-16T19:01:12.177Z,96485.69
2023-05-16T19:03:41.443Z,96484.06
2023-05-16T19:06:09.447Z,96485.69
2023-05-16T19:08:47.471Z,96479.84
2023-05-16T19:11:16.856Z,96498.44
2023-05-16T19:13:44.701Z,96495.19
2023-05-16T19:16:12.586Z,96459.16
2023-05-16T19:18:42.158Z,96502.16
2023-05-16T19:21:13.050Z,96503.47
2023-05-16T19:23:41.016Z,96506.72
2023-05-16T19:26:08.846Z,96522.25
2023-05-16T19:28:37.513Z,96519.81
2023-05-16T19:31:05.247Z,96528.44
2023-05-16T19:33:33.023Z,96526.00
2023-05-16T19:36:03.026Z,96526.56
2023-05-16T19:38:30.845Z,96533.00
2023-05-16T19:40:59.808Z,96539.78
2023-05-16T19:43:27.668Z,96550.09
2023-05-16T19:45:55.386Z,96542.91
2023-05-16T19:48:23.301Z,96552.75
2023-05-16T19:50:51.972Z,96538.06
2023-05-16T19:53:21.218Z,96549.91
2023-05-16T19:55:49.506Z,96549.03
2023-05-16T19:58:17.891Z,96554.13
2023-05-16T20:00:46.976Z,96566.91
2023-05-16T20:03:14.843Z,96544.13
2023-05-16T20:05:42.826Z,96563.81
2023-05-16T20:08:11.184Z,96563.44
2023-05-16T20:10:40.823Z,96575.31
2023-05-16T20:13:08.830Z,96581.47
2023-05-16T20:15:36.784Z,96583.72
2023-05-16T20:18:04.756Z,96585.06
2023-05-16T20:20:32.562Z,96589.00
2023-05-16T20:23:00.327Z,96572.72
2023-05-16T20:25:28.374Z,96590.75
2023-05-16T20:27:57.681Z,96582.91
2023-05-16T20:30:25.755Z,96592.22
2023-05-16T20:32:53.605Z,96590.91
2023-05-16T20:35:21.621Z,96601.16
2023-05-16T20:37:49.423Z,96603.47
2023-05-16T20:40:17.216Z,96597.50
2023-05-16T20:42:45.061Z,96596.25
2023-05-16T20:45:14.234Z,96578.78
2023-05-16T20:47:42.164Z,96603.69
2023-05-16T20:50:10.622Z,96604.41
2023-05-16T20:52:38.432Z,96597.09
2023-05-16T20:55:07.100Z,96568.91
2023-05-16T20:57:34.942Z,96590.88
2023-05-16T21:00:03.286Z,96591.09
2023-05-16T21:02:32.453Z,96596.78
2023-05-16T21:05:06.159Z,96595.69
2023-05-16T21:07:47.893Z,96600.28
2023-05-16T21:10:15.777Z,96606.13
2023-05-16T21:12:43.617Z,96597.63
2023-05-16T21:15:11.519Z,96601.47
2023-05-16T21:17:41.515Z,96603.25
2023-05-16T21:20:10.307Z,96607.97
2023-05-16T21:22:38.130Z,96601.34
2023-05-16T21:25:06.575Z,96586.50
2023-05-16T21:27:34.302Z,96613.53
2023-05-16T21:30:02.168Z,96620.47
2023-05-16T21:32:32.487Z,96614.25
2023-05-16T21:35:04.363Z,96600.38
2023-05-16T21:37:32.234Z,96626.59
2023-05-16T21:40:00.072Z,96609.28
2023-05-16T21:42:27.875Z,96628.16
2023-05-16T21:44:55.711Z,96642.88
2023-05-16T21:47:23.495Z,96633.50
2023-05-16T21:49:51.314Z,96637.53
2023-05-16T21:52:20.548Z,96638.41
2023-05-16T21:54:51.563Z,96642.56
2023-05-16T21:57:20.472Z,96645.06
2023-05-16T21:59:50.759Z,96651.09
2023-05-16T22:02:22.718Z,96650.56
2023-05-16T22:04:51.362Z,96654.66
2023-05-16T22:07:20.767Z,96652.66
2023-05-16T22:09:50.931Z,96642.56
2023-05-16T22:12:18.755Z,96653.69
2023-05-16T22:14:46.718Z,96641.97
2023-05-16T22:17:14.552Z,96645.38
2023-05-16T22:19:43.152Z,96651.97
2023-05-16T22:22:11.023Z,96650.25
2023-05-16T22:24:40.415Z,96631.00
2023-05-16T22:27:08.261Z,96660.88
2023-05-16T22:29:38.865Z,96664.22
2023-05-16T22:32:08.274Z,96661.78
2023-05-16T22:34:36.403Z,96648.13
2023-05-16T22:37:04.161Z,96658.06
2023-05-16T22:39:31.906Z,96597.78
2023-05-16T22:42:01.724Z,96671.03
2023-05-16T22:44:29.855Z,96674.00
2023-05-16T22:46:57.584Z,96666.00
2023-05-16T22:49:25.439Z,96670.16
2023-05-16T22:51:53.300Z,96666.38
2023-05-16T22:54:21.035Z,96681.81
2023-05-16T22:56:48.857Z,96682.38
2023-05-16T22:59:19.616Z,96672.22
2023-05-16T23:01:47.808Z,96681.66
2023-05-16T23:04:16.185Z,96680.09
2023-05-16T23:06:44.064Z,96682.53
2023-05-16T23:09:11.838Z,96680.84
2023-05-16T23:11:39.581Z,96684.09
2023-05-16T23:14:07.388Z,96683.88
2023-05-16T23:16:39.262Z,96679.88
2023-05-16T23:19:09.293Z,96685.69
2023-05-16T23:21:37.561Z,96682.97
2023-05-16T23:24:05.572Z,96671.63
2023-05-16T23:26:33.424Z,96685.78
2023-05-16T23:29:01.188Z,96685.00
2023-05-16T23:31:29.260Z,96683.22
2023-05-16T23:33:58.475Z,96673.13
2023-05-16T23:36:26.447Z,96685.88
2023-05-16T23:38:54.262Z,96686.63
2023-05-16T23:41:24.077Z,96670.00
2023-05-16T23:43:52.247Z,96677.41
2023-05-16T23:46:20.073Z,96695.53
2023-05-16T23:48:48.113Z,96694.31
2023-05-16T23:51:18.080Z,96689.41
2023-05-16T23:53:45.853Z,96692.84
2023-05-16T23:56:13.680Z,96688.47
2023-05-16T23:58:41.452Z,96689.03
